sensor_id;sensor_type;location;lat;lon;timestamp;pressure;altitude;pressure_sealevel;temperature;humidity
49216;BME280;45943;53.148;8.204;2023-06-22T00:00:49;102021.03;;;24.40;100.00
49216;BME280;45943;53.148;8.204;2023-06-22T00:03:17;102027.56;;;24.54;100.00
49216;BME280;45943;53.148;8.204;2023-06-22T00:05:44;102026.06;;;24.51;100.00
49216;BME280;45943;53.148;8.204;2023-06-22T00:08:11;102025.28;;;24.43;100.00
49216;BME280;45943;53.148;8.204;2023-06-22T00:10:37;102020.41;;;24.30;100.00
49216;BME280;45943;53.148;8.204;2023-06-22T00:13:03;102027.44;;;24.33;100.00
49216;BME280;45943;53.148;8.204;2023-06-22T00:15:30;102032.34;;;24.37;100.00
49216;BME280;45943;53.148;8.204;2023-06-22T00:17:56;102040.59;;;24.37;100.00
49216;BME280;45943;53.148;8.204;2023-06-22T00:20:23;102039.19;;;24.41;100.00
49216;BME280;45943;53.148;8.204;2023-06-22T00:22:54;102041.38;;;24.46;100.00
49216;BME280;45943;53.148;8.204;2023-06-22T00:25:20;102033.72;;;24.41;100.00
49216;BME280;45943;53.148;8.204;2023-06-22T00:27:47;102034.97;;;24.30;100.00
49216;BME280;45943;53.148;8.204;2023-06-22T00:30:13;102024.78;;;24.16;100.00
49216;BME280;45943;53.148;8.204;2023-06-22T00:32:40;102027.72;;;24.15;100.00
49216;BME280;45943;53.148;8.204;2023-06-22T00:35:07;102027.47;;;24.24;100.00
49216;BME280;45943;53.148;8.204;2023-06-22T00:37:33;102020.91;;;24.34;100.00
49216;BME280;45943;53.148;8.204;2023-06-22T00:39:59;102022.38;;;24.21;100.00
49216;BME280;45943;53.148;8.204;2023-06-22T00:42:25;102021.69;;;23.96;100.00
49216;BME280;45943;53.148;8.204;2023-06-22T00:44:51;102020.25;;;23.86;100.00
49216;BME280;45943;53.148;8.204;2023-06-22T00:47:17;102024.06;;;23.77;100.00
49216;BME280;45943;53.148;8.204;2023-06-22T00:49:44;102022.97;;;23.63;100.00
49216;BME280;45943;53.148;8.204;2023-06-22T00:52:12;102014.09;;;23.61;100.00
49216;BME280;45943;53.148;8.204;2023-06-22T00:54:42;102016.50;;;23.79;100.00
49216;BME280;45943;53.148;8.204;2023-06-22T00:57:12;102012.16;;;23.92;100.00
49216;BME280;45943;53.148;8.204;2023-06-22T00:59:45;102010.78;;;23.88;100.00
49216;BME280;45943;53.148;8.204;2023-06-22T01:02:11;102012.22;;;23.84;100.00
49216;BME280;45943;53.148;8.204;2023-06-22T01:04:37;102020.00;;;23.95;100.00
49216;BME280;45943;53.148;8.204;2023-06-22T01:09:42;102019.28;;;24.01;100.00
49216;BME280;45943;53.148;8.204;2023-06-22T01:12:14;102009.59;;;23.91;100.00
49216;BME280;45943;53.148;8.204;2023-06-22T01:14:47;102002.75;;;23.87;100.00
49216;BME280;45943;53.148;8.204;2023-06-22T01:17:19;102006.16;;;23.89;100.00
49216;BME280;45943;53.148;8.204;2023-06-22T01:19:46;102003.25;;;23.90;100.00
49216;BME280;45943;53.148;8.204;2023-06-22T01:22:25;102009.16;;;23.79;100.00
49216;BME280;45943;53.148;8.204;2023-06-22T01:27:47;102004.34;;;23.81;100.00
49216;BME280;45943;53.148;8.204;2023-06-22T01:30:15;102002.09;;;23.85;100.00
49216;BME280;45943;53.148;8.204;2023-06-22T01:32:43;101997.66;;;23.84;100.00
49216;BME280;45943;53.148;8.204;2023-06-22T01:35:10;102001.91;;;23.86;100.00
49216;BME280;45943;53.148;8.204;2023-06-22T01:37:37;101997.22;;;23.95;100.00
49216;BME280;45943;53.148;8.204;2023-06-22T01:40:04;102002.16;;;23.99;100.00
49216;BME280;45943;53.148;8.204;2023-06-22T01:42:33;101994.19;;;23.90;100.00
49216;BME280;45943;53.148;8.204;2023-06-22T01:45:00;101993.22;;;23.83;100.00
49216;BME280;45943;53.148;8.204;2023-06-22T01:47:28;101994.25;;;23.82;100.00
49216;BME280;45943;53.148;8.204;2023-06-22T01:49:54;101988.34;;;23.70;100.00
49216;BME280;45943;53.148;8.204;2023-06-22T01:52:20;101988.75;;;23.59;100.00
49216;BME280;45943;53.148;8.204;2023-06-22T01:54:46;101987.19;;;23.56;100.00
49216;BME280;45943;53.148;8.204;2023-06-22T01:57:13;101983.59;;;23.56;100.00
49216;BME280;45943;53.148;8.204;2023-06-22T01:59:48;101988.03;;;23.57;100.00
49216;BME280;45943;53.148;8.204;2023-06-22T02:02:20;101992.53;;;23.50;100.00
49216;BME280;45943;53.148;8.204;2023-06-22T02:04:54;101983.16;;;23.44;100.00
49216;BME280;45943;53.148;8.204;2023-06-22T02:07:26;101993.75;;;23.47;100.00
49216;BME280;45943;53.148;8.204;2023-06-22T02:09:55;101993.97;;;23.37;100.00
49216;BME280;45943;53.148;8.204;2023-06-22T02:12:24;101995.22;;;23.27;100.00
49216;BME280;45943;53.148;8.204;2023-06-22T02:14:53;101983.56;;;23.33;100.00
49216;BME280;45943;53.148;8.204;2023-06-22T02:17:19;101981.78;;;23.40;100.00
49216;BME280;45943;53.148;8.204;2023-06-22T02:19:45;101983.22;;;23.36;100.00
49216;BME280;45943;53.148;8.204;2023-06-22T02:22:11;101986.34;;;23.25;100.00
49216;BME280;45943;53.148;8.204;2023-06-22T02:24:40;101981.09;;;23.15;100.00
49216;BME280;45943;53.148;8.204;2023-06-22T02:27:06;101991.38;;;23.13;100.00
49216;BME280;45943;53.148;8.204;2023-06-22T02:29:32;101996.47;;;23.16;100.00
49216;BME280;45943;53.148;8.204;2023-06-22T02:31:59;101999.88;;;23.18;100.00
49216;BME280;45943;53.148;8.204;2023-06-22T02:34:24;101994.97;;;23.13;100.00
49216;BME280;45943;53.148;8.204;2023-06-22T02:36:51;101997.25;;;23.02;100.00
49216;BME280;45943;53.148;8.204;2023-06-22T02:39:20;101998.78;;;22.96;100.00
49216;BME280;45943;53.148;8.204;2023-06-22T02:41:48;101997.56;;;22.99;100.00
49216;BME280;45943;53.148;8.204;2023-06-22T02:44:15;101996.88;;;23.05;100.00
49216;BME280;45943;53.148;8.204;2023-06-22T02:46:41;101997.25;;;23.02;100.00
49216;BME280;45943;53.148;8.204;2023-06-22T02:49:10;101996.03;;;23.04;100.00
49216;BME280;45943;53.148;8.204;2023-06-22T02:51:41;101993.13;;;22.98;100.00
49216;BME280;45943;53.148;8.204;2023-06-22T02:54:10;101991.28;;;22.90;100.00
49216;BME280;45943;53.148;8.204;2023-06-22T02:56:36;101995.03;;;22.89;100.00
49216;BME280;45943;53.148;8.204;2023-06-22T02:59:02;101990.97;;;22.85;100.00
49216;BME280;45943;53.148;8.204;2023-06-22T03:01:29;101995.41;;;22.86;100.00
49216;BME280;45943;53.148;8.204;2023-06-22T03:04:03;102000.00;;;22.77;100.00
49216;BME280;45943;53.148;8.204;2023-06-22T03:06:30;102004.81;;;22.75;100.00
49216;BME280;45943;53.148;8.204;2023-06-22T03:09:00;101994.72;;;22.76;100.00
49216;BME280;45943;53.148;8.204;2023-06-22T03:11:27;101995.38;;;22.78;100.00
49216;BME280;45943;53.148;8.204;2023-06-22T03:13:53;101995.72;;;22.83;100.00
49216;BME280;45943;53.148;8.204;2023-06-22T03:16:19;102000.03;;;22.85;100.00
49216;BME280;45943;53.148;8.204;2023-06-22T03:18:45;101997.94;;;22.79;100.00
49216;BME280;45943;53.148;8.204;2023-06-22T03:21:11;102006.16;;;22.79;100.00
49216;BME280;45943;53.148;8.204;2023-06-22T03:23:37;101998.66;;;22.81;100.00
49216;BME280;45943;53.148;8.204;2023-06-22T03:26:03;102005.13;;;22.88;100.00
49216;BME280;45943;53.148;8.204;2023-06-22T03:28:30;102009.25;;;22.93;100.00
49216;BME280;45943;53.148;8.204;2023-06-22T03:30:59;102004.81;;;22.92;100.00
49216;BME280;45943;53.148;8.204;2023-06-22T03:33:25;102006.84;;;22.89;100.00
49216;BME280;45943;53.148;8.204;2023-06-22T03:35:51;102017.09;;;22.96;100.00
49216;BME280;45943;53.148;8.204;2023-06-22T03:38:17;102022.19;;;23.07;100.00
49216;BME280;45943;53.148;8.204;2023-06-22T03:40:43;102020.97;;;23.09;100.00
49216;BME280;45943;53.148;8.204;2023-06-22T03:43:09;102018.09;;;23.03;100.00
49216;BME280;45943;53.148;8.204;2023-06-22T03:45:35;102017.75;;;23.06;100.00
49216;BME280;45943;53.148;8.204;2023-06-22T03:48:01;102017.34;;;23.17;100.00
49216;BME280;45943;53.148;8.204;2023-06-22T03:50:27;102015.66;;;23.16;100.00
49216;BME280;45943;53.148;8.204;2023-06-22T03:52:53;102020.09;;;23.09;100.00
49216;BME280;45943;53.148;8.204;2023-06-22T03:55:19;102020.66;;;23.04;100.00
49216;BME280;45943;53.148;8.204;2023-06-22T03:57:45;102020.47;;;23.06;100.00
49216;BME280;45943;53.148;8.204;2023-06-22T04:00:12;102021.31;;;23.06;100.00
49216;BME280;45943;53.148;8.204;2023-06-22T04:02:38;102023.56;;;23.03;100.00
49216;BME280;45943;53.148;8.204;2023-06-22T04:05:04;102024.56;;;23.10;100.00
49216;BME280;45943;53.148;8.204;2023-06-22T04:07:31;102026.59;;;23.16;100.00
49216;BME280;45943;53.148;8.204;2023-06-22T04:09:57;102021.28;;;23.23;100.00
49216;BME280;45943;53.148;8.204;2023-06-22T04:12:23;102028.75;;;23.29;100.00
49216;BME280;45943;53.148;8.204;2023-06-22T04:14:49;102029.44;;;23.31;100.00
49216;BME280;45943;53.148;8.204;2023-06-22T04:17:15;102036.44;;;23.33;100.00
49216;BME280;45943;53.148;8.204;2023-06-22T04:19:41;102025.84;;;23.30;100.00
49216;BME280;45943;53.148;8.204;2023-06-22T04:22:07;102034.22;;;23.29;100.00
49216;BME280;45943;53.148;8.204;2023-06-22T04:24:33;102025.53;;;23.25;100.00
49216;BME280;45943;53.148;8.204;2023-06-22T04:26:59;102025.03;;;23.22;100.00
49216;BME280;45943;53.148;8.204;2023-06-22T04:29:26;102024.84;;;23.23;100.00
49216;BME280;45943;53.148;8.204;2023-06-22T04:31:54;102025.38;;;23.18;100.00
49216;BME280;45943;53.148;8.204;2023-06-22T04:34:21;102017.88;;;23.21;100.00
49216;BME280;45943;53.148;8.204;2023-06-22T04:36:47;102023.34;;;23.21;100.00
49216;BME280;45943;53.148;8.204;2023-06-22T04:39:14;102020.59;;;23.21;100.00
49216;BME280;45943;53.148;8.204;2023-06-22T04:41:40;102022.97;;;23.24;100.00
49216;BME280;45943;53.148;8.204;2023-06-22T04:46:39;102026.41;;;23.17;100.00
49216;BME280;45943;53.148;8.204;2023-06-22T04:49:06;102026.09;;;23.12;100.00
49216;BME280;45943;53.148;8.204;2023-06-22T04:51:42;102032.75;;;23.18;100.00
49216;BME280;45943;53.148;8.204;2023-06-22T04:54:08;102024.69;;;23.25;100.00
49216;BME280;45943;53.148;8.204;2023-06-22T04:56:35;102028.06;;;23.35;100.00
49216;BME280;45943;53.148;8.204;2023-06-22T04:59:01;102015.53;;;23.40;100.00
49216;BME280;45943;53.148;8.204;2023-06-22T05:01:29;102021.16;;;23.39;100.00
49216;BME280;45943;53.148;8.204;2023-06-22T05:03:57;102009.78;;;23.27;100.00
49216;BME280;45943;53.148;8.204;2023-06-22T05:06:26;102014.44;;;23.18;100.00
49216;BME280;45943;53.148;8.204;2023-06-22T05:08:56;102020.09;;;23.17;100.00
49216;BME280;45943;53.148;8.204;2023-06-22T05:11:26;102014.78;;;23.15;100.00
49216;BME280;45943;53.148;8.204;2023-06-22T05:13:52;102008.47;;;23.15;100.00
49216;BME280;45943;53.148;8.204;2023-06-22T05:16:19;102021.47;;;23.13;100.00
49216;BME280;45943;53.148;8.204;2023-06-22T05:18:52;102021.31;;;23.14;100.00
49216;BME280;45943;53.148;8.204;2023-06-22T05:21:22;102017.16;;;23.18;100.00
49216;BME280;45943;53.148;8.204;2023-06-22T05:23:50;102022.31;;;23.22;100.00
49216;BME280;45943;53.148;8.204;2023-06-22T05:26:17;102021.44;;;23.21;100.00
49216;BME280;45943;53.148;8.204;2023-06-22T05:28:44;102014.75;;;23.24;100.00
49216;BME280;45943;53.148;8.204;2023-06-22T05:31:14;102011.84;;;23.25;100.00
49216;BME280;45943;53.148;8.204;2023-06-22T05:33:41;102014.09;;;23.22;100.00
49216;BME280;45943;53.148;8.204;2023-06-22T05:36:08;102012.38;;;23.21;100.00
49216;BME280;45943;53.148;8.204;2023-06-22T05:38:36;102004.22;;;23.12;100.00
49216;BME280;45943;53.148;8.204;2023-06-22T05:41:02;102008.69;;;23.05;100.00
49216;BME280;45943;53.148;8.204;2023-06-22T05:43:28;102001.97;;;23.08;100.00
49216;BME280;45943;53.148;8.204;2023-06-22T05:45:54;102009.66;;;23.21;100.00
49216;BME280;45943;53.148;8.204;2023-06-22T05:48:20;102009.91;;;23.34;100.00
49216;BME280;45943;53.148;8.204;2023-06-22T05:50:46;102012.91;;;23.47;100.00
49216;BME280;45943;53.148;8.204;2023-06-22T05:53:12;102014.94;;;23.53;100.00
49216;BME280;45943;53.148;8.204;2023-06-22T05:55:39;102015.13;;;23.60;100.00
49216;BME280;45943;53.148;8.204;2023-06-22T05:58:05;102016.94;;;23.67;100.00
49216;BME280;45943;53.148;8.204;2023-06-22T06:00:31;102010.06;;;23.71;100.00
49216;BME280;45943;53.148;8.204;2023-06-22T06:02:57;102008.66;;;23.75;100.00
49216;BME280;45943;53.148;8.204;2023-06-22T06:05:29;102008.28;;;23.79;100.00
49216;BME280;45943;53.148;8.204;2023-06-22T06:07:59;102012.69;;;23.88;100.00
49216;BME280;45943;53.148;8.204;2023-06-22T06:10:26;102013.13;;;23.99;100.00
49216;BME280;45943;53.148;8.204;2023-06-22T06:12:53;102017.19;;;24.03;100.00
49216;BME280;45943;53.148;8.204;2023-06-22T06:15:19;102005.38;;;24.03;100.00
49216;BME280;45943;53.148;8.204;2023-06-22T06:17:48;102004.91;;;23.99;100.00
49216;BME280;45943;53.148;8.204;2023-06-22T06:20:15;102011.53;;;24.05;100.00
49216;BME280;45943;53.148;8.204;2023-06-22T06:22:44;102005.78;;;24.15;100.00
49216;BME280;45943;53.148;8.204;2023-06-22T06:25:10;102000.91;;;24.25;100.00
49216;BME280;45943;53.148;8.204;2023-06-22T06:27:42;102003.47;;;24.26;100.00
49216;BME280;45943;53.148;8.204;2023-06-22T06:30:09;102002.94;;;24.31;100.00
49216;BME280;45943;53.148;8.204;2023-06-22T06:32:40;102003.22;;;24.36;100.00
49216;BME280;45943;53.148;8.204;2023-06-22T06:35:07;102002.75;;;24.33;100.00
49216;BME280;45943;53.148;8.204;2023-06-22T06:37:38;102011.00;;;24.33;100.00
49216;BME280;45943;53.148;8.204;2023-06-22T06:40:09;102005.97;;;24.36;100.00
49216;BME280;45943;53.148;8.204;2023-06-22T06:42:40;102006.38;;;24.48;100.00
49216;BME280;45943;53.148;8.204;2023-06-22T06:45:12;102012.81;;;24.55;100.00
49216;BME280;45943;53.148;8.204;2023-06-22T06:47:41;102008.94;;;24.64;100.00
49216;BME280;45943;53.148;8.204;2023-06-22T06:50:07;102017.09;;;24.72;100.00
49216;BME280;45943;53.148;8.204;2023-06-22T06:52:33;102013.22;;;24.81;100.00
49216;BME280;45943;53.148;8.204;2023-06-22T06:54:59;102014.53;;;24.85;100.00
49216;BME280;45943;53.148;8.204;2023-06-22T06:57:26;102014.19;;;24.88;100.00
49216;BME280;45943;53.148;8.204;2023-06-22T06:59:56;102005.75;;;24.90;100.00
49216;BME280;45943;53.148;8.204;2023-06-22T07:02:22;102015.81;;;24.98;100.00
49216;BME280;45943;53.148;8.204;2023-06-22T07:04:49;102007.66;;;25.04;100.00
49216;BME280;45943;53.148;8.204;2023-06-22T07:07:16;102011.16;;;25.13;100.00
49216;BME280;45943;53.148;8.204;2023-06-22T07:09:42;102010.03;;;25.22;100.00
49216;BME280;45943;53.148;8.204;2023-06-22T07:12:09;102003.88;;;25.20;100.00
49216;BME280;45943;53.148;8.204;2023-06-22T07:14:35;102002.72;;;25.29;100.00
49216;BME280;45943;53.148;8.204;2023-06-22T07:17:01;102004.88;;;25.34;100.00
49216;BME280;45943;53.148;8.204;2023-06-22T07:19:27;102004.50;;;25.37;100.00
49216;BME280;45943;53.148;8.204;2023-06-22T07:21:54;102009.03;;;25.44;100.00
49216;BME280;45943;53.148;8.204;2023-06-22T07:24:20;102000.88;;;25.51;100.00
49216;BME280;45943;53.148;8.204;2023-06-22T07:26:50;101993.06;;;25.55;100.00
49216;BME280;45943;53.148;8.204;2023-06-22T07:29:16;101991.47;;;25.60;100.00
49216;BME280;45943;53.148;8.204;2023-06-22T07:31:43;101995.31;;;25.66;100.00
49216;BME280;45943;53.148;8.204;2023-06-22T07:34:10;101995.72;;;25.63;100.00
49216;BME280;45943;53.148;8.204;2023-06-22T07:36:36;101991.72;;;25.65;100.00
49216;BME280;45943;53.148;8.204;2023-06-22T07:39:03;101989.91;;;25.72;100.00
49216;BME280;45943;53.148;8.204;2023-06-22T07:41:29;101986.84;;;25.82;100.00
49216;BME280;45943;53.148;8.204;2023-06-22T07:43:56;101988.81;;;25.88;100.00
49216;BME280;45943;53.148;8.204;2023-06-22T07:46:22;101988.22;;;25.93;100.00
49216;BME280;45943;53.148;8.204;2023-06-22T07:48:49;101982.53;;;25.94;100.00
49216;BME280;45943;53.148;8.204;2023-06-22T07:51:15;101991.16;;;25.91;100.00
49216;BME280;45943;53.148;8.204;2023-06-22T07:53:42;101996.53;;;25.99;100.00
49216;BME280;45943;53.148;8.204;2023-06-22T07:56:11;101988.16;;;26.08;100.00
49216;BME280;45943;53.148;8.204;2023-06-22T07:58:38;101984.16;;;26.10;100.00
49216;BME280;45943;53.148;8.204;2023-06-22T08:01:04;101975.56;;;26.20;100.00
49216;BME280;45943;53.148;8.204;2023-06-22T08:03:30;101968.66;;;26.30;100.00
49216;BME280;45943;53.148;8.204;2023-06-22T08:05:56;101971.22;;;26.32;100.00
49216;BME280;45943;53.148;8.204;2023-06-22T08:08:22;101967.19;;;26.35;100.00
49216;BME280;45943;53.148;8.204;2023-06-22T08:10:48;101965.38;;;26.42;100.00
49216;BME280;45943;53.148;8.204;2023-06-22T08:13:14;101962.50;;;26.50;100.00
49216;BME280;45943;53.148;8.204;2023-06-22T08:15:40;101965.50;;;26.55;100.00
49216;BME280;45943;53.148;8.204;2023-06-22T08:18:06;101950.91;;;26.61;100.00
49216;BME280;45943;53.148;8.204;2023-06-22T08:20:32;101956.88;;;26.65;100.00
49216;BME280;45943;53.148;8.204;2023-06-22T08:22:58;101955.22;;;26.70;100.00
49216;BME280;45943;53.148;8.204;2023-06-22T08:25:30;101959.25;;;26.74;100.00
49216;BME280;45943;53.148;8.204;2023-06-22T08:27:56;101956.94;;;26.78;97.62
49216;BME280;45943;53.148;8.204;2023-06-22T08:30:22;101958.66;;;26.79;100.00
49216;BME280;45943;53.148;8.204;2023-06-22T08:32:49;101955.69;;;26.80;100.00
49216;BME280;45943;53.148;8.204;2023-06-22T08:35:15;101959.88;;;26.70;100.00
49216;BME280;45943;53.148;8.204;2023-06-22T08:37:41;101959.66;;;26.71;100.00
49216;BME280;45943;53.148;8.204;2023-06-22T08:40:08;101957.00;;;26.84;100.00
49216;BME280;45943;53.148;8.204;2023-06-22T08:42:35;101957.22;;;26.90;100.00
49216;BME280;45943;53.148;8.204;2023-06-22T08:45:02;101954.25;;;26.91;100.00
49216;BME280;45943;53.148;8.204;2023-06-22T08:47:29;101954.88;;;26.93;100.00
49216;BME280;45943;53.148;8.204;2023-06-22T08:49:57;101942.94;;;27.07;100.00
49216;BME280;45943;53.148;8.204;2023-06-22T08:52:31;101943.16;;;27.12;100.00
49216;BME280;45943;53.148;8.204;2023-06-22T08:54:57;101948.88;;;27.11;100.00
49216;BME280;45943;53.148;8.204;2023-06-22T08:57:27;101949.34;;;27.28;99.54
49216;BME280;45943;53.148;8.204;2023-06-22T08:59:53;101948.31;;;27.35;100.00
49216;BME280;45943;53.148;8.204;2023-06-22T09:02:19;101943.66;;;27.42;96.86
49216;BME280;45943;53.148;8.204;2023-06-22T09:04:45;101939.03;;;27.56;96.41
49216;BME280;45943;53.148;8.204;2023-06-22T09:07:12;101941.59;;;27.58;94.26
49216;BME280;45943;53.148;8.204;2023-06-22T09:09:38;101934.63;;;27.68;89.63
49216;BME280;45943;53.148;8.204;2023-06-22T09:12:04;101939.53;;;27.73;86.11
49216;BME280;45943;53.148;8.204;2023-06-22T09:14:30;101935.28;;;27.77;86.58
49216;BME280;45943;53.148;8.204;2023-06-22T09:16:56;101932.50;;;27.70;86.46
49216;BME280;45943;53.148;8.204;2023-06-22T09:19:22;101939.09;;;27.76;89.17
49216;BME280;45943;53.148;8.204;2023-06-22T09:21:48;101936.13;;;27.91;88.79
49216;BME280;45943;53.148;8.204;2023-06-22T09:24:14;101928.06;;;27.89;85.63
49216;BME280;45943;53.148;8.204;2023-06-22T09:26:40;101930.41;;;28.06;83.78
49216;BME280;45943;53.148;8.204;2023-06-22T09:29:06;101920.25;;;28.13;84.59
49216;BME280;45943;53.148;8.204;2023-06-22T09:31:32;101918.31;;;28.13;84.29
49216;BME280;45943;53.148;8.204;2023-06-22T09:33:58;101907.25;;;28.26;86.01
49216;BME280;45943;53.148;8.204;2023-06-22T09:39:49;101908.91;;;28.61;82.67
49216;BME280;45943;53.148;8.204;2023-06-22T09:42:18;101910.19;;;28.65;76.77
49216;BME280;45943;53.148;8.204;2023-06-22T09:44:44;101909.28;;;28.71;78.34
49216;BME280;45943;53.148;8.204;2023-06-22T09:47:10;101901.81;;;28.84;80.61
49216;BME280;45943;53.148;8.204;2023-06-22T09:49:36;101897.16;;;28.78;77.40
49216;BME280;45943;53.148;8.204;2023-06-22T09:52:02;101900.16;;;28.70;74.03
49216;BME280;45943;53.148;8.204;2023-06-22T09:54:29;101891.69;;;28.72;76.69
49216;BME280;45943;53.148;8.204;2023-06-22T09:56:55;101892.91;;;28.82;82.39
49216;BME280;45943;53.148;8.204;2023-06-22T09:59:21;101889.72;;;28.92;76.75
49216;BME280;45943;53.148;8.204;2023-06-22T10:01:47;101887.13;;;28.97;71.59
49216;BME280;45943;53.148;8.204;2023-06-22T10:04:12;101886.03;;;29.05;73.95
49216;BME280;45943;53.148;8.204;2023-06-22T10:06:38;101884.59;;;28.96;72.78
49216;BME280;45943;53.148;8.204;2023-06-22T10:09:06;101878.38;;;29.07;73.10
49216;BME280;45943;53.148;8.204;2023-06-22T10:11:33;101870.66;;;29.16;74.67
49216;BME280;45943;53.148;8.204;2023-06-22T10:14:01;101866.84;;;29.17;75.60
49216;BME280;45943;53.148;8.204;2023-06-22T10:16:31;101861.69;;;29.20;72.27
49216;BME280;45943;53.148;8.204;2023-06-22T10:18:57;101866.31;;;29.33;74.21
49216;BME280;45943;53.148;8.204;2023-06-22T10:21:23;101878.25;;;29.27;69.90
49216;BME280;45943;53.148;8.204;2023-06-22T10:23:50;101858.31;;;29.18;69.52
49216;BME280;45943;53.148;8.204;2023-06-22T10:26:16;101872.81;;;29.45;73.46
49216;BME280;45943;53.148;8.204;2023-06-22T10:28:42;101870.66;;;29.79;73.40
49216;BME280;45943;53.148;8.204;2023-06-22T10:31:07;101864.56;;;29.95;70.42
49216;BME280;45943;53.148;8.204;2023-06-22T10:33:34;101860.09;;;29.94;68.42
49216;BME280;45943;53.148;8.204;2023-06-22T10:36:00;101863.09;;;29.92;66.25
49216;BME280;45943;53.148;8.204;2023-06-22T10:38:26;101857.00;;;30.09;65.63
49216;BME280;45943;53.148;8.204;2023-06-22T10:40:52;101858.00;;;30.14;63.71
49216;BME280;45943;53.148;8.204;2023-06-22T10:43:18;101852.97;;;30.30;65.03
49216;BME280;45943;53.148;8.204;2023-06-22T10:45:44;101848.13;;;30.43;64.22
49216;BME280;45943;53.148;8.204;2023-06-22T10:48:10;101852.03;;;30.54;64.58
49216;BME280;45943;53.148;8.204;2023-06-22T10:50:36;101853.22;;;30.65;61.21
49216;BME280;45943;53.148;8.204;2023-06-22T10:53:02;101840.13;;;30.72;60.04
49216;BME280;45943;53.148;8.204;2023-06-22T10:55:28;101845.34;;;30.80;61.43
49216;BME280;45943;53.148;8.204;2023-06-22T10:57:54;101841.50;;;30.81;60.56
49216;BME280;45943;53.148;8.204;2023-06-22T11:00:20;101841.03;;;30.66;62.42
49216;BME280;45943;53.148;8.204;2023-06-22T11:02:47;101835.59;;;30.59;61.62
49216;BME280;45943;53.148;8.204;2023-06-22T11:05:13;101831.19;;;30.51;60.11
49216;BME280;45943;53.148;8.204;2023-06-22T11:07:42;101831.19;;;30.51;59.45
49216;BME280;45943;53.148;8.204;2023-06-22T11:10:10;101830.50;;;30.74;61.04
49216;BME280;45943;53.148;8.204;2023-06-22T11:12:36;101828.56;;;31.05;58.62
49216;BME280;45943;53.148;8.204;2023-06-22T11:15:02;101826.75;;;31.29;58.00
49216;BME280;45943;53.148;8.204;2023-06-22T11:17:28;101827.97;;;31.33;55.58
49216;BME280;45943;53.148;8.204;2023-06-22T11:19:54;101827.13;;;31.44;55.24
49216;BME280;45943;53.148;8.204;2023-06-22T11:22:20;101823.31;;;31.57;55.90
49216;BME280;45943;53.148;8.204;2023-06-22T11:24:46;101826.09;;;31.57;53.95
49216;BME280;45943;53.148;8.204;2023-06-22T11:27:12;101819.91;;;31.55;55.35
49216;BME280;45943;53.148;8.204;2023-06-22T11:29:38;101814.63;;;31.53;55.00
49216;BME280;45943;53.148;8.204;2023-06-22T11:32:05;101812.75;;;31.77;54.01
49216;BME280;45943;53.148;8.204;2023-06-22T11:34:32;101813.94;;;32.05;53.47
49216;BME280;45943;53.148;8.204;2023-06-22T11:36:58;101807.66;;;32.09;51.78
49216;BME280;45943;53.148;8.204;2023-06-22T11:39:24;101809.06;;;32.23;53.18
49216;BME280;45943;53.148;8.204;2023-06-22T11:41:50;101802.59;;;32.18;51.62
49216;BME280;45943;53.148;8.204;2023-06-22T11:44:16;101793.88;;;32.26;52.13
49216;BME280;45943;53.148;8.204;2023-06-22T11:46:42;101784.34;;;32.34;53.57
49216;BME280;45943;53.148;8.204;2023-06-22T11:49:08;101797.13;;;32.46;52.28
49216;BME280;45943;53.148;8.204;2023-06-22T11:51:34;101788.94;;;32.68;51.03
49216;BME280;45943;53.148;8.204;2023-06-22T11:54:00;101801.03;;;32.62;50.25
49216;BME280;45943;53.148;8.204;2023-06-22T11:56:27;101799.44;;;32.26;52.23
49216;BME280;45943;53.148;8.204;2023-06-22T11:58:53;101798.25;;;31.99;52.01
49216;BME280;45943;53.148;8.204;2023-06-22T12:01:19;101800.41;;;31.61;52.87
49216;BME280;45943;53.148;8.204;2023-06-22T12:03:46;101793.84;;;31.32;53.69
49216;BME280;45943;53.148;8.204;2023-06-22T12:06:13;101795.56;;;31.03;53.92
49216;BME280;45943;53.148;8.204;2023-06-22T12:08:39;101801.03;;;30.80;54.30
49216;BME280;45943;53.148;8.204;2023-06-22T12:11:05;101793.78;;;30.61;56.26
49216;BME280;45943;53.148;8.204;2023-06-22T12:13:31;101791.28;;;30.41;56.52
49216;BME280;45943;53.148;8.204;2023-06-22T12:15:57;101777.75;;;30.33;58.03
49216;BME280;45943;53.148;8.204;2023-06-22T12:18:23;101780.06;;;30.17;58.36
49216;BME280;45943;53.148;8.204;2023-06-22T12:20:58;101784.25;;;30.02;59.06
49216;BME280;45943;53.148;8.204;2023-06-22T12:23:24;101769.66;;;29.94;59.17
49216;BME280;45943;53.148;8.204;2023-06-22T12:25:50;101766.03;;;29.94;60.42
49216;BME280;45943;53.148;8.204;2023-06-22T12:28:16;101768.09;;;29.98;62.20
49216;BME280;45943;53.148;8.204;2023-06-22T12:30:42;101770.66;;;30.00;63.33
49216;BME280;45943;53.148;8.204;2023-06-22T12:33:08;101767.25;;;29.98;62.73
49216;BME280;45943;53.148;8.204;2023-06-22T12:35:34;101771.56;;;29.94;64.19
49216;BME280;45943;53.148;8.204;2023-06-22T12:38:00;101760.28;;;29.95;65.02
49216;BME280;45943;53.148;8.204;2023-06-22T12:40:32;101759.91;;;29.92;67.78
49216;BME280;45943;53.148;8.204;2023-06-22T12:42:58;101756.72;;;29.88;67.42
49216;BME280;45943;53.148;8.204;2023-06-22T12:45:24;101742.03;;;29.88;63.95
49216;BME280;45943;53.148;8.204;2023-06-22T12:47:54;101734.38;;;29.90;64.44
49216;BME280;45943;53.148;8.204;2023-06-22T12:50:20;101733.31;;;29.91;65.22
49216;BME280;45943;53.148;8.204;2023-06-22T12:52:46;101726.28;;;29.88;62.96